sensor_id;sensor_type;location;lat;lon;timestamp;P1;durP1;ratioP1;P2;durP2;ratioP2
16837;SDS011;19510;54.486;9.046;2023-02-15T00:01:47;45.87;;;18.77;;
16837;SDS011;19510;54.486;9.046;2023-02-15T00:04:17;49.83;;;19.07;;
16837;SDS011;19510;54.486;9.046;2023-02-15T00:06:44;46.57;;;19.23;;
16837;SDS011;19510;54.486;9.046;2023-02-15T00:09:10;47.03;;;18.03;;
16837;SDS011;19510;54.486;9.046;2023-02-15T00:11:37;40.80;;;16.70;;
16837;SDS011;19510;54.486;9.046;2023-02-15T00:16:38;45.10;;;17.60;;
16837;SDS011;19510;54.486;9.046;2023-02-15T00:19:04;43.37;;;17.20;;
16837;SDS011;19510;54.486;9.046;2023-02-15T00:21:34;47.43;;;17.20;;
16837;SDS011;19510;54.486;9.046;2023-02-15T00:24:01;43.50;;;18.03;;
16837;SDS011;19510;54.486;9.046;2023-02-15T00:26:28;45.93;;;18.40;;
16837;SDS011;19510;54.486;9.046;2023-02-15T00:28:54;47.23;;;17.87;;
16837;SDS011;19510;54.486;9.046;2023-02-15T00:31:21;45.07;;;17.43;;
16837;SDS011;19510;54.486;9.046;2023-02-15T00:33:46;44.67;;;18.00;;
16837;SDS011;19510;54.486;9.046;2023-02-15T00:36:13;42.63;;;17.77;;
16837;SDS011;19510;54.486;9.046;2023-02-15T00:38:39;45.90;;;17.60;;
16837;SDS011;19510;54.486;9.046;2023-02-15T00:41:08;42.57;;;16.90;;
16837;SDS011;19510;54.486;9.046;2023-02-15T00:43:37;44.30;;;16.77;;
16837;SDS011;19510;54.486;9.046;2023-02-15T00:46:03;48.27;;;18.00;;
16837;SDS011;19510;54.486;9.046;2023-02-15T00:48:30;41.73;;;17.63;;
16837;SDS011;19510;54.486;9.046;2023-02-15T00:50:56;42.63;;;18.00;;
16837;SDS011;19510;54.486;9.046;2023-02-15T00:53:24;44.20;;;17.07;;
16837;SDS011;19510;54.486;9.046;2023-02-15T00:55:53;49.93;;;18.17;;
16837;SDS011;19510;54.486;9.046;2023-02-15T00:58:19;44.47;;;17.13;;
16837;SDS011;19510;54.486;9.046;2023-02-15T01:00:45;47.00;;;18.67;;
16837;SDS011;19510;54.486;9.046;2023-02-15T01:03:15;43.23;;;17.87;;
16837;SDS011;19510;54.486;9.046;2023-02-15T01:05:44;48.97;;;18.17;;
16837;SDS011;19510;54.486;9.046;2023-02-15T01:08:09;44.60;;;17.13;;
16837;SDS011;19510;54.486;9.046;2023-02-15T01:10:35;46.20;;;18.27;;
16837;SDS011;19510;54.486;9.046;2023-02-15T01:13:01;47.07;;;19.03;;
16837;SDS011;19510;54.486;9.046;2023-02-15T01:15:27;42.90;;;17.87;;
16837;SDS011;19510;54.486;9.046;2023-02-15T01:17:55;44.40;;;17.53;;
16837;SDS011;19510;54.486;9.046;2023-02-15T01:20:25;40.20;;;16.83;;
16837;SDS011;19510;54.486;9.046;2023-02-15T01:22:52;40.77;;;17.27;;
16837;SDS011;19510;54.486;9.046;2023-02-15T01:25:19;39.27;;;16.90;;
16837;SDS011;19510;54.486;9.046;2023-02-15T01:27:49;42.53;;;17.43;;
16837;SDS011;19510;54.486;9.046;2023-02-15T01:30:15;44.43;;;16.57;;
16837;SDS011;19510;54.486;9.046;2023-02-15T01:32:41;46.43;;;19.13;;
16837;SDS011;19510;54.486;9.046;2023-02-15T01:35:10;44.23;;;16.67;;
16837;SDS011;19510;54.486;9.046;2023-02-15T01:37:37;41.80;;;17.77;;
16837;SDS011;19510;54.486;9.046;2023-02-15T01:40:04;43.47;;;17.43;;
16837;SDS011;19510;54.486;9.046;2023-02-15T01:42:33;37.67;;;16.70;;
16837;SDS011;19510;54.486;9.046;2023-02-15T01:44:59;41.83;;;16.93;;
16837;SDS011;19510;54.486;9.046;2023-02-15T01:47:50;41.73;;;18.50;;
16837;SDS011;19510;54.486;9.046;2023-02-15T01:50:38;45.47;;;18.40;;
16837;SDS011;19510;54.486;9.046;2023-02-15T01:53:14;46.57;;;17.77;;
16837;SDS011;19510;54.486;9.046;2023-02-15T01:55:47;42.20;;;18.23;;
16837;SDS011;19510;54.486;9.046;2023-02-15T01:58:17;43.33;;;17.00;;
16837;SDS011;19510;54.486;9.046;2023-02-15T02:00:43;42.33;;;17.33;;
16837;SDS011;19510;54.486;9.046;2023-02-15T02:03:09;43.97;;;17.10;;
16837;SDS011;19510;54.486;9.046;2023-02-15T02:05:38;38.60;;;17.27;;
16837;SDS011;19510;54.486;9.046;2023-02-15T02:08:08;45.27;;;17.67;;
16837;SDS011;19510;54.486;9.046;2023-02-15T02:10:37;44.00;;;18.47;;
16837;SDS011;19510;54.486;9.046;2023-02-15T02:13:05;40.73;;;17.50;;
16837;SDS011;19510;54.486;9.046;2023-02-15T02:18:14;40.77;;;16.53;;
16837;SDS011;19510;54.486;9.046;2023-02-15T02:24:19;42.63;;;17.20;;
16837;SDS011;19510;54.486;9.046;2023-02-15T02:35:14;40.60;;;16.23;;
16837;SDS011;19510;54.486;9.046;2023-02-15T02:37:50;35.13;;;16.00;;
16837;SDS011;19510;54.486;9.046;2023-02-15T02:46:15;40.50;;;16.10;;
16837;SDS011;19510;54.486;9.046;2023-02-15T02:48:49;32.53;;;14.33;;
16837;SDS011;19510;54.486;9.046;2023-02-15T02:51:16;39.20;;;17.17;;
16837;SDS011;19510;54.486;9.046;2023-02-15T02:53:47;38.57;;;14.77;;
16837;SDS011;19510;54.486;9.046;2023-02-15T02:56:27;37.73;;;15.37;;
16837;SDS011;19510;54.486;9.046;2023-02-15T03:01:41;38.07;;;14.67;;
16837;SDS011;19510;54.486;9.046;2023-02-15T03:04:29;39.77;;;13.00;;
16837;SDS011;19510;54.486;9.046;2023-02-15T03:07:04;39.10;;;12.07;;
16837;SDS011;19510;54.486;9.046;2023-02-15T03:09:34;34.37;;;12.77;;
16837;SDS011;19510;54.486;9.046;2023-02-15T03:12:31;52.83;;;14.03;;
16837;SDS011;19510;54.486;9.046;2023-02-15T03:17:34;42.87;;;12.07;;
16837;SDS011;19510;54.486;9.046;2023-02-15T03:20:07;46.03;;;12.20;;
16837;SDS011;19510;54.486;9.046;2023-02-15T03:22:55;56.07;;;12.30;;
16837;SDS011;19510;54.486;9.046;2023-02-15T03:28:01;28.53;;;10.97;;
16837;SDS011;19510;54.486;9.046;2023-02-15T03:30:29;32.37;;;10.60;;
16837;SDS011;19510;54.486;9.046;2023-02-15T03:33:00;43.97;;;12.60;;
16837;SDS011;19510;54.486;9.046;2023-02-15T03:38:07;25.07;;;10.07;;
16837;SDS011;19510;54.486;9.046;2023-02-15T03:40:36;22.17;;;10.10;;
16837;SDS011;19510;54.486;9.046;2023-02-15T03:49:01;24.73;;;9.57;;
16837;SDS011;19510;54.486;9.046;2023-02-15T03:51:54;27.07;;;10.00;;
16837;SDS011;19510;54.486;9.046;2023-02-15T03:54:26;24.97;;;10.60;;
16837;SDS011;19510;54.486;9.046;2023-02-15T03:57:25;22.83;;;9.30;;
16837;SDS011;19510;54.486;9.046;2023-02-15T04:00:15;18.93;;;9.97;;
16837;SDS011;19510;54.486;9.046;2023-02-15T04:05:33;44.10;;;10.37;;
16837;SDS011;19510;54.486;9.046;2023-02-15T04:07:59;46.13;;;10.80;;
16837;SDS011;19510;54.486;9.046;2023-02-15T04:10:27;30.80;;;10.33;;
16837;SDS011;19510;54.486;9.046;2023-02-15T04:13:16;22.60;;;10.47;;
16837;SDS011;19510;54.486;9.046;2023-02-15T04:15:44;33.43;;;10.43;;
16837;SDS011;19510;54.486;9.046;2023-02-15T04:18:28;35.73;;;10.10;;
16837;SDS011;19510;54.486;9.046;2023-02-15T04:21:13;36.87;;;10.00;;
16837;SDS011;19510;54.486;9.046;2023-02-15T04:23:57;30.17;;;10.37;;
16837;SDS011;19510;54.486;9.046;2023-02-15T04:26:43;24.33;;;10.30;;
16837;SDS011;19510;54.486;9.046;2023-02-15T04:29:09;31.17;;;10.10;;
16837;SDS011;19510;54.486;9.046;2023-02-15T04:31:40;28.23;;;9.70;;
16837;SDS011;19510;54.486;9.046;2023-02-15T04:34:11;34.53;;;10.27;;
16837;SDS011;19510;54.486;9.046;2023-02-15T04:36:38;26.80;;;10.57;;
16837;SDS011;19510;54.486;9.046;2023-02-15T04:39:04;21.40;;;9.80;;
16837;SDS011;19510;54.486;9.046;2023-02-15T04:41:30;22.00;;;10.20;;
16837;SDS011;19510;54.486;9.046;2023-02-15T04:43:58;22.57;;;9.90;;
16837;SDS011;19510;54.486;9.046;2023-02-15T04:46:25;21.97;;;9.40;;
16837;SDS011;19510;54.486;9.046;2023-02-15T04:48:53;23.47;;;8.93;;
16837;SDS011;19510;54.486;9.046;2023-02-15T04:51:24;28.43;;;10.03;;
16837;SDS011;19510;54.486;9.046;2023-02-15T04:53:50;36.47;;;9.47;;
16837;SDS011;19510;54.486;9.046;2023-02-15T04:56:19;32.40;;;9.33;;
16837;SDS011;19510;54.486;9.046;2023-02-15T04:58:48;30.27;;;8.87;;
16837;SDS011;19510;54.486;9.046;2023-02-15T05:01:18;42.13;;;9.63;;
16837;SDS011;19510;54.486;9.046;2023-02-15T05:03:44;17.57;;;8.57;;
16837;SDS011;19510;54.486;9.046;2023-02-15T05:06:10;33.70;;;9.07;;
16837;SDS011;19510;54.486;9.046;2023-02-15T05:08:40;17.53;;;8.73;;
16837;SDS011;19510;54.486;9.046;2023-02-15T05:11:06;34.83;;;8.83;;
16837;SDS011;19510;54.486;9.046;2023-02-15T05:13:36;25.07;;;8.93;;
16837;SDS011;19510;54.486;9.046;2023-02-15T05:16:04;41.47;;;9.10;;
16837;SDS011;19510;54.486;9.046;2023-02-15T05:18:34;22.80;;;9.07;;
16837;SDS011;19510;54.486;9.046;2023-02-15T05:21:04;22.80;;;8.70;;
16837;SDS011;19510;54.486;9.046;2023-02-15T05:23:30;33.67;;;9.40;;
16837;SDS011;19510;54.486;9.046;2023-02-15T05:25:56;27.53;;;8.63;;
16837;SDS011;19510;54.486;9.046;2023-02-15T05:28:40;31.87;;;9.10;;
16837;SDS011;19510;54.486;9.046;2023-02-15T05:31:10;45.17;;;9.43;;
16837;SDS011;19510;54.486;9.046;2023-02-15T05:33:36;35.67;;;7.90;;
16837;SDS011;19510;54.486;9.046;2023-02-15T05:36:05;45.50;;;10.03;;
16837;SDS011;19510;54.486;9.046;2023-02-15T05:38:31;31.77;;;8.43;;
16837;SDS011;19510;54.486;9.046;2023-02-15T05:41:02;30.23;;;8.90;;
16837;SDS011;19510;54.486;9.046;2023-02-15T05:43:33;35.43;;;8.70;;
16837;SDS011;19510;54.486;9.046;2023-02-15T05:46:06;25.37;;;8.57;;
16837;SDS011;19510;54.486;9.046;2023-02-15T05:48:32;18.23;;;7.70;;
16837;SDS011;19510;54.486;9.046;2023-02-15T05:51:02;22.73;;;8.87;;
16837;SDS011;19510;54.486;9.046;2023-02-15T05:53:34;21.37;;;8.97;;
16837;SDS011;19510;54.486;9.046;2023-02-15T05:56:06;21.47;;;8.23;;
16837;SDS011;19510;54.486;9.046;2023-02-15T05:58:41;16.87;;;7.70;;
16837;SDS011;19510;54.486;9.046;2023-02-15T06:01:14;21.67;;;8.10;;
16837;SDS011;19510;54.486;9.046;2023-02-15T06:03:42;28.33;;;8.07;;
16837;SDS011;19510;54.486;9.046;2023-02-15T06:06:08;29.03;;;8.13;;
16837;SDS011;19510;54.486;9.046;2023-02-15T06:08:37;29.43;;;8.70;;
16837;SDS011;19510;54.486;9.046;2023-02-15T06:11:03;28.87;;;7.10;;
16837;SDS011;19510;54.486;9.046;2023-02-15T06:13:32;29.87;;;8.23;;
16837;SDS011;19510;54.486;9.046;2023-02-15T06:15:58;19.67;;;7.70;;
16837;SDS011;19510;54.486;9.046;2023-02-15T06:18:26;13.00;;;7.40;;
16837;SDS011;19510;54.486;9.046;2023-02-15T06:20:52;35.27;;;9.17;;
16837;SDS011;19510;54.486;9.046;2023-02-15T06:23:18;24.63;;;8.70;;
16837;SDS011;19510;54.486;9.046;2023-02-15T06:25:44;31.27;;;9.30;;
16837;SDS011;19510;54.486;9.046;2023-02-15T06:28:12;17.53;;;9.27;;
16837;SDS011;19510;54.486;9.046;2023-02-15T06:30:38;20.27;;;8.73;;
16837;SDS011;19510;54.486;9.046;2023-02-15T06:33:04;18.67;;;9.00;;
16837;SDS011;19510;54.486;9.046;2023-02-15T06:35:29;19.87;;;8.60;;
16837;SDS011;19510;54.486;9.046;2023-02-15T06:37:55;26.97;;;8.57;;
16837;SDS011;19510;54.486;9.046;2023-02-15T06:40:21;35.77;;;8.60;;
16837;SDS011;19510;54.486;9.046;2023-02-15T06:42:46;26.07;;;9.10;;
16837;SDS011;19510;54.486;9.046;2023-02-15T06:45:12;36.37;;;8.57;;
16837;SDS011;19510;54.486;9.046;2023-02-15T06:47:41;14.13;;;8.47;;
16837;SDS011;19510;54.486;9.046;2023-02-15T06:50:06;24.67;;;8.50;;
16837;SDS011;19510;54.486;9.046;2023-02-15T06:52:33;21.23;;;8.43;;
16837;SDS011;19510;54.486;9.046;2023-02-15T06:55:06;24.80;;;8.57;;
16837;SDS011;19510;54.486;9.046;2023-02-15T06:57:32;33.30;;;8.90;;
16837;SDS011;19510;54.486;9.046;2023-02-15T06:59:58;27.30;;;9.10;;
16837;SDS011;19510;54.486;9.046;2023-02-15T07:02:24;17.00;;;8.10;;
16837;SDS011;19510;54.486;9.046;2023-02-15T07:04:50;15.67;;;8.07;;
16837;SDS011;19510;54.486;9.046;2023-02-15T07:07:15;35.90;;;8.83;;
16837;SDS011;19510;54.486;9.046;2023-02-15T07:09:43;31.10;;;8.70;;
16837;SDS011;19510;54.486;9.046;2023-02-15T07:12:11;31.20;;;8.30;;
16837;SDS011;19510;54.486;9.046;2023-02-15T07:14:58;25.53;;;8.87;;
16837;SDS011;19510;54.486;9.046;2023-02-15T07:17:25;27.03;;;8.30;;
16837;SDS011;19510;54.486;9.046;2023-02-15T07:19:53;29.07;;;8.70;;
16837;SDS011;19510;54.486;9.046;2023-02-15T07:22:20;25.67;;;9.17;;
16837;SDS011;19510;54.486;9.046;2023-02-15T07:24:47;36.73;;;8.63;;
16837;SDS011;19510;54.486;9.046;2023-02-15T07:27:14;43.50;;;8.97;;
16837;SDS011;19510;54.486;9.046;2023-02-15T07:29:40;13.17;;;7.73;;
16837;SDS011;19510;54.486;9.046;2023-02-15T07:32:07;31.90;;;8.67;;
16837;SDS011;19510;54.486;9.046;2023-02-15T07:34:38;38.70;;;8.80;;
16837;SDS011;19510;54.486;9.046;2023-02-15T07:37:06;20.77;;;7.30;;
16837;SDS011;19510;54.486;9.046;2023-02-15T07:39:34;24.63;;;8.37;;
16837;SDS011;19510;54.486;9.046;2023-02-15T07:42:00;31.50;;;8.73;;
16837;SDS011;19510;54.486;9.046;2023-02-15T07:44:28;32.33;;;8.80;;
16837;SDS011;19510;54.486;9.046;2023-02-15T07:46:58;14.50;;;7.20;;
16837;SDS011;19510;54.486;9.046;2023-02-15T07:49:27;17.60;;;7.47;;
16837;SDS011;19510;54.486;9.046;2023-02-15T07:51:55;25.10;;;8.13;;
16837;SDS011;19510;54.486;9.046;2023-02-15T07:54:21;37.87;;;9.00;;
16837;SDS011;19510;54.486;9.046;2023-02-15T07:56:49;19.53;;;7.13;;
16837;SDS011;19510;54.486;9.046;2023-02-15T07:59:20;26.97;;;8.63;;
16837;SDS011;19510;54.486;9.046;2023-02-15T08:01:45;23.07;;;8.30;;
16837;SDS011;19510;54.486;9.046;2023-02-15T08:04:11;24.20;;;8.53;;
16837;SDS011;19510;54.486;9.046;2023-02-15T08:06:39;25.97;;;8.40;;
16837;SDS011;19510;54.486;9.046;2023-02-15T08:09:12;16.80;;;8.30;;
16837;SDS011;19510;54.486;9.046;2023-02-15T08:11:38;21.73;;;7.77;;
16837;SDS011;19510;54.486;9.046;2023-02-15T08:14:08;26.90;;;8.73;;
16837;SDS011;19510;54.486;9.046;2023-02-15T08:16:49;28.37;;;9.10;;
16837;SDS011;19510;54.486;9.046;2023-02-15T08:19:23;26.33;;;8.73;;
16837;SDS011;19510;54.486;9.046;2023-02-15T08:21:54;25.37;;;8.63;;
16837;SDS011;19510;54.486;9.046;2023-02-15T08:24:31;28.13;;;12.93;;
16837;SDS011;19510;54.486;9.046;2023-02-15T08:26:58;34.40;;;10.20;;
16837;SDS011;19510;54.486;9.046;2023-02-15T08:29:27;26.37;;;9.03;;
16837;SDS011;19510;54.486;9.046;2023-02-15T08:31:57;28.03;;;8.20;;
16837;SDS011;19510;54.486;9.046;2023-02-15T08:34:32;22.63;;;8.47;;
16837;SDS011;19510;54.486;9.046;2023-02-15T08:37:02;19.70;;;8.30;;
16837;SDS011;19510;54.486;9.046;2023-02-15T08:39:27;21.90;;;7.63;;
16837;SDS011;19510;54.486;9.046;2023-02-15T08:41:58;17.37;;;8.33;;
16837;SDS011;19510;54.486;9.046;2023-02-15T08:44:26;49.27;;;9.27;;
16837;SDS011;19510;54.486;9.046;2023-02-15T08:46:52;28.40;;;7.90;;
16837;SDS011;19510;54.486;9.046;2023-02-15T08:49:22;18.43;;;8.43;;
16837;SDS011;19510;54.486;9.046;2023-02-15T08:51:49;39.97;;;8.07;;
16837;SDS011;19510;54.486;9.046;2023-02-15T08:54:16;23.13;;;8.30;;
16837;SDS011;19510;54.486;9.046;2023-02-15T08:56:46;23.87;;;8.67;;
16837;SDS011;19510;54.486;9.046;2023-02-15T08:59:18;31.83;;;8.73;;
16837;SDS011;19510;54.486;9.046;2023-02-15T09:01:46;32.87;;;9.53;;
16837;SDS011;19510;54.486;9.046;2023-02-15T09:04:15;18.63;;;7.83;;
16837;SDS011;19510;54.486;9.046;2023-02-15T09:06:44;38.10;;;9.07;;
16837;SDS011;19510;54.486;9.046;2023-02-15T09:09:13;23.57;;;9.63;;
16837;SDS011;19510;54.486;9.046;2023-02-15T09:11:46;16.80;;;8.90;;
16837;SDS011;19510;54.486;9.046;2023-02-15T09:14:17;17.93;;;8.20;;
16837;SDS011;19510;54.486;9.046;2023-02-15T09:16:46;22.70;;;9.03;;
16837;SDS011;19510;54.486;9.046;2023-02-15T09:19:14;22.67;;;8.40;;
16837;SDS011;19510;54.486;9.046;2023-02-15T09:21:42;31.30;;;9.40;;
16837;SDS011;19510;54.486;9.046;2023-02-15T09:24:12;23.03;;;8.50;;
16837;SDS011;19510;54.486;9.046;2023-02-15T09:26:40;25.53;;;9.50;;
16837;SDS011;19510;54.486;9.046;2023-02-15T09:29:08;25.97;;;8.67;;
16837;SDS011;19510;54.486;9.046;2023-02-15T09:31:52;26.80;;;8.77;;
16837;SDS011;19510;54.486;9.046;2023-02-15T09:34:21;16.63;;;7.97;;
16837;SDS011;19510;54.486;9.046;2023-02-15T09:36:50;13.83;;;8.27;;
16837;SDS011;19510;54.486;9.046;2023-02-15T09:39:22;17.90;;;8.40;;
16837;SDS011;19510;54.486;9.046;2023-02-15T09:45:14;15.60;;;7.77;;
16837;SDS011;19510;54.486;9.046;2023-02-15T10:12:57;27.27;;;8.50;;
16837;SDS011;19510;54.486;9.046;2023-02-15T10:27:19;15.83;;;8.97;;
16837;SDS011;19510;54.486;9.046;2023-02-15T10:30:02;17.70;;;8.37;;
16837;SDS011;19510;54.486;9.046;2023-02-15T10:40:29;13.63;;;8.30;;
16837;SDS011;19510;54.486;9.046;2023-02-15T10:45:40;18.47;;;9.33;;
16837;SDS011;19510;54.486;9.046;2023-02-15T10:48:16;29.77;;;8.93;;
16837;SDS011;19510;54.486;9.046;2023-02-15T10:51:14;21.10;;;9.30;;
16837;SDS011;19510;54.486;9.046;2023-02-15T11:05:29;17.47;;;9.47;;
16837;SDS011;19510;54.486;9.046;2023-02-15T11:07:47;14.10;;;8.97;;
16837;SDS011;19510;54.486;9.046;2023-02-15T11:10:24;23.63;;;9.30;;
16837;SDS011;19510;54.486;9.046;2023-02-15T11:13:01;23.23;;;10.17;;
16837;SDS011;19510;54.486;9.046;2023-02-15T11:15:34;18.27;;;9.77;;
16837;SDS011;19510;54.486;9.046;2023-02-15T11:18:09;16.73;;;9.70;;
16837;SDS011;19510;54.486;9.046;2023-02-15T11:21:13;27.90;;;10.27;;
16837;SDS011;19510;54.486;9.046;2023-02-15T11:23:37;21.87;;;10.37;;
16837;SDS011;19510;54.486;9.046;2023-02-15T11:26:17;19.73;;;10.43;;
16837;SDS011;19510;54.486;9.046;2023-02-15T11:31:34;17.63;;;9.93;;
16837;SDS011;19510;54.486;9.046;2023-02-15T11:34:52;24.77;;;10.23;;
16837;SDS011;19510;54.486;9.046;2023-02-15T11:37:15;25.20;;;11.03;;
16837;SDS011;19510;54.486;9.046;2023-02-15T11:39:45;17.47;;;10.33;;
16837;SDS011;19510;54.486;9.046;2023-02-15T11:42:17;22.83;;;11.40;;
16837;SDS011;19510;54.486;9.046;2023-02-15T11:47:23;28.50;;;11.10;;
16837;SDS011;19510;54.486;9.046;2023-02-15T11:49:49;26.20;;;12.07;;
16837;SDS011;19510;54.486;9.046;2023-02-15T11:52:15;19.77;;;11.27;;
16837;SDS011;19510;54.486;9.046;2023-02-15T11:54:45;22.43;;;12.30;;
16837;SDS011;19510;54.486;9.046;2023-02-15T11:57:22;26.00;;;12.30;;
16837;SDS011;19510;54.486;9.046;2023-02-15T12:00:02;22.30;;;12.23;;
16837;SDS011;19510;54.486;9.046;2023-02-15T12:02:50;23.20;;;11.73;;
16837;SDS011;19510;54.486;9.046;2023-02-15T12:05:23;25.63;;;13.30;;
16837;SDS011;19510;54.486;9.046;2023-02-15T12:07:57;18.87;;;12.20;;
16837;SDS011;19510;54.486;9.046;2023-02-15T12:10:36;38.30;;;13.80;;
16837;SDS011;19510;54.486;9.046;2023-02-15T12:13:16;30.97;;;13.10;;
16837;SDS011;19510;54.486;9.046;2023-02-15T12:15:50;26.73;;;12.73;;
16837;SDS011;19510;54.486;9.046;2023-02-15T12:20:59;34.77;;;12.60;;
16837;SDS011;19510;54.486;9.046;2023-02-15T12:23:29;25.23;;;11.83;;
16837;SDS011;19510;54.486;9.046;2023-02-15T12:25:59;30.73;;;13.50;;
16837;SDS011;19510;54.486;9.046;2023-02-15T12:31:03;39.30;;;13.23;;
16837;SDS011;19510;54.486;9.046;2023-02-15T12:33:40;26.30;;;13.33;;
16837;SDS011;19510;54.486;9.046;2023-02-15T12:36:12;39.77;;;14.33;;
16837;SDS011;19510;54.486;9.046;2023-02-15T12:38:40;26.50;;;12.97;;
16837;SDS011;19510;54.486;9.046;2023-02-15T12:41:40;25.40;;;13.67;;
16837;SDS011;19510;54.486;9.046;2023-02-15T12:44:05;25.20;;;13.63;;
16837;SDS011;19510;54.486;9.046;2023-02-15T12:46:55;28.47;;;13.97;;
16837;SDS011;19510;54.486;9.046;2023-02-15T12:49:32;30.80;;;15.00;;
16837;SDS011;19510;54.486;9.046;2023-02-15T12:52:00;28.87;;;14.93;;
16837;SDS011;19510;54.486;9.046;2023-02-15T12:54:32;35.87;;;15.43;;
16837;SDS011;19510;54.486;9.046;2023-02-15T12:57:12;30.43;;;15.13;;
16837;SDS011;19510;54.486;9.046;2023-02-15T12:59:47;38.87;;;14.60;;
16837;SDS011;19510;54.486;9.046;2023-02-15T13:02:23;31.30;;;16.47;;
16837;SDS011;19510;54.486;9.046;2023-02-15T13:07:53;36.53;;;16.23;;
16837;SDS011;19510;54.486;9.046;2023-02-15T13:10:24;44.73;;;17.57;;
16837;SDS011;19510;54.486;9.046;2023-02-15T13:13:16;35.80;;;17.40;;
16837;SDS011;19510;54.486;9.046;2023-02-15T13:15:52;36.63;;;18.33;;
16837;SDS011;19510;54.486;9.046;2023-02-15T13:18:36;37.20;;;17.00;;
16837;SDS011;19510;54.486;9.046;2023-02-15T13:21:09;35.90;;;18.13;;
16837;SDS011;19510;54.486;9.046;2023-02-15T13:23:48;41.87;;;19.47;;
16837;SDS011;19510;54.486;9.046;2023-02-15T13:26:22;37.60;;;18.77;;
16837;SDS011;19510;54.486;9.046;2023-02-15T13:28:52;41.47;;;19.47;;
16837;SDS011;19510;54.486;9.046;2023-02-15T13:31:23;39.40;;;20.57;;
16837;SDS011;19510;54.486;9.046;2023-02-15T13:34:12;48.73;;;21.73;;
16837;SDS011;19510;54.486;9.046;2023-02-15T13:36:49;40.40;;;20.57;;
16837;SDS011;19510;54.486;9.046;2023-02-15T13:42:17;46.50;;;22.13;;
16837;SDS011;19510;54.486;9.046;2023-02-15T13:53:17;47.43;;;23.83;;
16837;SDS011;19510;54.486;9.046;2023-02-15T13:55:53;51.83;;;23.70;;
16837;SDS011;19510;54.486;9.046;2023-02-15T14:12:48;66.10;;;24.60;;
16837;SDS011;19510;54.486;9.046;2023-02-15T14:15:29;59.23;;;26.53;;
16837;SDS011;19510;54.486;9.046;2023-02-15T14:31:48;57.57;;;26.17;;
16837;SDS011;19510;54.486;9.046;2023-02-15T14:37:10;66.07;;;28.57;;
16837;SDS011;19510;54.486;9.046;2023-02-15T14:43:00;70.83;;;30.00;;
16837;SDS011;19510;54.486;9.046;2023-02-15T14:45:39;63.10;;;29.17;;
16837;SDS011;19510;54.486;9.046;2023-02-15T14:54:08;62.83;;;28.17;;
16837;SDS011;19510;54.486;9.046;2023-02-15T15:02:18;64.43;;;28.77;;
16837;SDS011;19510;54.486;9.046;2023-02-15T15:07:52;65.97;;;29.50;;
16837;SDS011;19510;54.486;9.046;2023-02-15T15:15:13;69.87;;;28.07;;
16837;SDS011;19510;54.486;9.046;2023-02-15T15:30:51;64.20;;;28.63;;
16837;SDS011;19510;54.486;9.046;2023-02-15T15:38:20;68.10;;;31.30;;
16837;SDS011;19510;54.486;9.046;2023-02-15T15:43:53;67.63;;;29.73;;
16837;SDS011;19510;54.486;9.046;2023-02-15T15:49:34;75.90;;;30.30;;
16837;SDS011;19510;54.486;9.046;2023-02-15T15:52:21;67.60;;;27.30;;
16837;SDS011;19510;54.486;9.046;2023-02-15T15:54:54;58.27;;;27.80;;
16837;SDS011;19510;54.486;9.046;2023-02-15T15:59:57;75.87;;;29.57;;
16837;SDS011;19510;54.486;9.046;2023-02-15T16:02:26;66.07;;;29.30;;
16837;SDS011;19510;54.486;9.046;2023-02-15T16:04:52;63.77;;;27.67;;
16837;SDS011;19510;54.486;9.046;2023-02-15T16:12:19;73.00;;;29.50;;
16837;SDS011;19510;54.486;9.046;2023-02-15T16:14:45;75.53;;;28.67;;
16837;SDS011;19510;54.486;9.046;2023-02-15T16:17:23;73.40;;;28.40;;
16837;SDS011;19510;54.486;9.046;2023-02-15T16:19:51;60.47;;;28.10;;
16837;SDS011;19510;54.486;9.046;2023-02-15T16:28:31;65.70;;;29.10;;
16837;SDS011;19510;54.486;9.046;2023-02-15T16:31:06;65.33;;;29.40;;
16837;SDS011;19510;54.486;9.046;2023-02-15T16:33:42;68.67;;;30.87;;
16837;SDS011;19510;54.486;9.046;2023-02-15T16:36:19;75.60;;;28.43;;
16837;SDS011;19510;54.486;9.046;2023-02-15T16:41:29;90.63;;;30.17;;
16837;SDS011;19510;54.486;9.046;2023-02-15T16:43:58;71.83;;;32.03;;
16837;SDS011;19510;54.486;9.046;2023-02-15T16:46:31;87.93;;;29.80;;
16837;SDS011;19510;54.486;9.046;2023-02-15T16:49:04;70.27;;;27.23;;
16837;SDS011;19510;54.486;9.046;2023-02-15T16:51:39;56.80;;;26.97;;
16837;SDS011;19510;54.486;9.046;2023-02-15T16:54:15;57.80;;;25.93;;
16837;SDS011;19510;54.486;9.046;2023-02-15T16:56:46;75.60;;;28.40;;
16837;SDS011;19510;54.486;9.046;2023-02-15T16:59:55;70.70;;;26.90;;
16837;SDS011;19510;54.486;9.046;2023-02-15T17:02:52;80.47;;;25.80;;
16837;SDS011;19510;54.486;9.046;2023-02-15T17:07:26;56.83;;;25.30;;
16837;SDS011;19510;54.486;9.046;2023-02-15T17:09:56;65.60;;;26.60;;
16837;SDS011;19510;54.486;9.046;2023-02-15T17:15:28;79.40;;;25.10;;
16837;SDS011;19510;54.486;9.046;2023-02-15T17:18:08;61.33;;;24.17;;
16837;SDS011;19510;54.486;9.046;2023-02-15T17:20:40;64.93;;;24.80;;
16837;SDS011;19510;54.486;9.046;2023-02-15T17:23:15;53.30;;;23.60;;
16837;SDS011;19510;54.486;9.046;2023-02-15T17:25:55;53.60;;;22.83;;
16837;SDS011;19510;54.486;9.046;2023-02-15T17:28:26;52.60;;;23.10;;
16837;SDS011;19510;54.486;9.046;2023-02-15T17:30:57;66.20;;;22.40;;
16837;SDS011;19510;54.486;9.046;2023-02-15T17:33:35;53.80;;;22.83;;
16837;SDS011;19510;54.486;9.046;2023-02-15T17:36:09;53.63;;;23.63;;
16837;SDS011;19510;54.486;9.046;2023-02-15T17:39:19;53.87;;;23.37;;
16837;SDS011;19510;54.486;9.046;2023-02-15T17:41:51;59.47;;;22.47;;
16837;SDS011;19510;54.486;9.046;2023-02-15T17:44:21;55.90;;;22.10;;
16837;SDS011;19510;54.486;9.046;2023-02-15T17:46:51;42.33;;;21.67;;
16837;SDS011;19510;54.486;9.046;2023-02-15T17:49:24;49.03;;;22.13;;
16837;SDS011;19510;54.486;9.046;2023-02-15T17:51:59;47.90;;;21.27;;
16837;SDS011;19510;54.486;9.046;2023-02-15T17:54:26;57.33;;;23.63;;
16837;SDS011;19510;54.486;9.046;2023-02-15T17:57:14;66.13;;;24.00;;
16837;SDS011;19510;54.486;9.046;2023-02-15T17:59:42;59.77;;;29.37;;
16837;SDS011;19510;54.486;9.046;2023-02-15T18:02:31;53.87;;;23.47;;
16837;SDS011;19510;54.486;9.046;2023-02-15T18:05:18;47.77;;;21.10;;
16837;SDS011;19510;54.486;9.046;2023-02-15T18:08:05;49.63;;;21.43;;
16837;SDS011;19510;54.486;9.046;2023-02-15T18:10:59;58.50;;;22.63;;
16837;SDS011;19510;54.486;9.046;2023-02-15T18:13:44;53.30;;;21.43;;
16837;SDS011;19510;54.486;9.046;2023-02-15T18:16:13;54.07;;;20.60;;
16837;SDS011;19510;54.486;9.046;2023-02-15T18:18:44;50.20;;;22.30;;
16837;SDS011;19510;54.486;9.046;2023-02-15T18:21:10;51.20;;;21.33;;
16837;SDS011;19510;54.486;9.046;2023-02-15T18:23:41;46.80;;;22.60;;
16837;SDS011;19510;54.486;9.046;2023-02-15T18:26:08;48.93;;;22.07;;
16837;SDS011;19510;54.486;9.046;2023-02-15T18:28:39;53.43;;;22.27;;
16837;SDS011;19510;54.486;9.046;2023-02-15T18:31:07;44.23;;;22.47;;
16837;SDS011;19510;54.486;9.046;2023-02-15T18:33:35;60.60;;;22.10;;
16837;SDS011;19510;54.486;9.046;2023-02-15T18:36:23;48.93;;;21.77;;
16837;SDS011;19510;54.486;9.046;2023-02-15T18:38:52;44.53;;;22.27;;
16837;SDS011;19510;54.486;9.046;2023-02-15T18:41:22;59.53;;;21.30;;
16837;SDS011;19510;54.486;9.046;2023-02-15T18:43:50;67.83;;;23.33;;